Aeroporto :
LOGIN :

Iscrizione | Disclaimer

   EN    FR    IT 

 










Sommario :    VFR   VFR Marginale   IFR   IFR Intensivo   IFR Molto Intensivo
Visibilità : 
Base nubi : 
>= 8 km
>= 3000ft
5 / 8 km
1000 / 3000 ft
1500m / 5 km
500 / 1000 ft
800 / 1500m
200 / 500 ft
< 800m
< 200 ft
Simboli :   Temporali  Nebbia  Neve Forte  Precipitazioni Forti  Vento > 20 kt
SIGMETs :   Varie  Temporali  Ghiacco  Turbolenza  Onda orograficha  Ceneri Vulcaniche






- Altitudine del aeroporto : 412 ft
- Codice IATA : KGS


LGKO - Ippokratis

ULTIMO METAR :
  • 010850Z 35006KT 9999 FEW025 17/13 Q1015

METARs OBSOLETI :
  • 010820Z 01006KT 9999 FEW025 17/12 Q1015
  • 010750Z 01007KT 9999 SCT025 16/12 Q1015
  • 010720Z 01005KT 9999 FEW025 16/13 Q1014
  • 010650Z 36004KT 9999 FEW025 15/12 Q1014
  • 010620Z 01003KT 9999 FEW025 14/12 Q1014

TAF TAF LGKO
Valido dal 01 a 06 ore il 02 a 06 ore UTC


010500Z 0106/0206 VRB05KT 9999 SCT020
BECMG 0111/0113 35014KT
PROB40
TEMPO 0106/0203 6000 RA FEW016 BKN020
PROB30
TEMPO 0106/0110 4000 TSRA FEW020CB



MetMap, La meteo Aeronautica in un colpo d'occhio ! - Copyright ORBIFLY Dicembre 2007 - Disclaimer

ORBIFLY MET'MAP TEAM :

Programmazione e sviluppo : Alexandra Zaïnal
Concezione : Baudouin d'Aumeries
Aiuto per la programmazione : Marc-Olivier Méhu
Supporto tecnico e logistico : Manuel Goepfert
Aiuto per la traduzione : Arnaldo La Scala

Contatto : metmap@orbifly.com




FONTI E CREDITI :

   NOAA